Littleton, CO (80165)

7:37 PM MST on November 22, 2014 (GMT -0700)
Bel-Vue Heights | Change Station
CLOSE
Current Station
Personal Weather Station
Location: Littleton, CO
Elevation: 5541 ft
Nearby Weather Stations

Elev 5541 ft 39.58 °N, 105.01 °W | Updated 57 seconds ago

Overcast
Overcast
43.2 °F
Feels Like 43 °F
N
2.3
Wind Variable Wind from West
Gusts 2.3 mph

Today
High -- | Low -- °F
--% Chance of Precip.
Yesterday
High -- | Low -- °F
Precip. -- in
6:52 AM 4:39 PM
New Moon, 0% visible
Pressure 29.56 in
Visibility 10.0 miles
Clouds Scattered Clouds 12000 ft
Mostly Cloudy 18000 ft
Windchill 43 °F
Dew Point 23 °F
Humidity 45%
Rainfall 0.00 in
Snow Depth Not available.
UV 0.0 out of 12
Pollen .10 out of 12
Air Quality Not available.
Flu Activity Not available.
METAR KAPA 230153Z 06004KT 10SM SCT120 BKN180 08/M04 A2961 RMK AO2 SLP010 T00831044

More Conditions Fewer Conditions

Pressure 29.56 in
Visibility 10.0 miles
Clouds Scattered Clouds 12000 ft
Mostly Cloudy 18000 ft
Windchill 43 °F
Dew Point 23 °F
Humidity 45%
Rainfall 0.00 in
Snow Depth Not available.
UV 0.0 out of 12
Pollen .10 out of 12
Air Quality Not available.
Flu Activity Not available.
METAR KAPA 230153Z 06004KT 10SM SCT120 BKN180 08/M04 A2961 RMK AO2 SLP010 T00831044

More Conditions Fewer Conditions

10-Day Weather Forecast

Almanac

Astronomy

Nov. 22, 2014 Rise Set
Actual Time
Civil Twilight
Nautical Twilight
Astronomical Twilight
Moon
Length of Visible Light
Length of Day
Tomorrow will be .
, % of the Moon is Illuminated

Today's Extremes

State Highs State Lows

Community

WunderPhotos

Upload Photos

1,772,977 photos uploaded!

WunderBlogs® & News

Nearby

Air Quality

  Air Quality AQ Index Pollutant
Not available.

Snow Depth

Station Depth Elevation

Earthquake Activity

City Distance Mag. Time & Date
Minimum magnitude displayed is 2.5.

Coastal Water Temperatures

Place Temperature

Nearby Weather Stations